sensor_id;sensor_type;location;lat;lon;timestamp;P1;durP1;ratioP1;P2;durP2;ratioP2
76566;SDS011;65428;53.194;6.132;2023-08-30T00:00:14;28.58;;;25.92;;
76566;SDS011;65428;53.194;6.132;2023-08-30T00:02:42;29.08;;;26.38;;
76566;SDS011;65428;53.194;6.132;2023-08-30T00:05:11;24.77;;;22.67;;
76566;SDS011;65428;53.194;6.132;2023-08-30T00:07:36;29.00;;;26.45;;
76566;SDS011;65428;53.194;6.132;2023-08-30T00:10:02;29.97;;;27.27;;
76566;SDS011;65428;53.194;6.132;2023-08-30T00:12:29;32.38;;;29.27;;
76566;SDS011;65428;53.194;6.132;2023-08-30T00:14:55;30.45;;;27.58;;
76566;SDS011;65428;53.194;6.132;2023-08-30T00:17:22;31.00;;;28.00;;
76566;SDS011;65428;53.194;6.132;2023-08-30T00:19:47;31.05;;;28.15;;
76566;SDS011;65428;53.194;6.132;2023-08-30T00:22:14;34.30;;;31.00;;
76566;SDS011;65428;53.194;6.132;2023-08-30T00:24:39;31.70;;;28.80;;
76566;SDS011;65428;53.194;6.132;2023-08-30T00:27:05;32.37;;;29.30;;
76566;SDS011;65428;53.194;6.132;2023-08-30T00:29:31;29.45;;;26.80;;
76566;SDS011;65428;53.194;6.132;2023-08-30T00:31:57;29.83;;;27.13;;
76566;SDS011;65428;53.194;6.132;2023-08-30T00:34:22;29.63;;;27.00;;
76566;SDS011;65428;53.194;6.132;2023-08-30T00:36:48;29.40;;;26.53;;
76566;SDS011;65428;53.194;6.132;2023-08-30T00:39:14;27.92;;;25.33;;
76566;SDS011;65428;53.194;6.132;2023-08-30T00:41:40;28.20;;;25.63;;
76566;SDS011;65428;53.194;6.132;2023-08-30T00:44:06;31.88;;;28.73;;
76566;SDS011;65428;53.194;6.132;2023-08-30T00:46:32;27.83;;;25.33;;
76566;SDS011;65428;53.194;6.132;2023-08-30T00:48:59;27.40;;;25.10;;
76566;SDS011;65428;53.194;6.132;2023-08-30T00:51:26;28.43;;;25.83;;
76566;SDS011;65428;53.194;6.132;2023-08-30T00:53:53;28.05;;;25.48;;
76566;SDS011;65428;53.194;6.132;2023-08-30T00:56:19;29.08;;;26.30;;
76566;SDS011;65428;53.194;6.132;2023-08-30T00:58:46;27.20;;;24.90;;
76566;SDS011;65428;53.194;6.132;2023-08-30T01:01:14;27.83;;;25.23;;
76566;SDS011;65428;53.194;6.132;2023-08-30T01:03:41;29.23;;;26.43;;
76566;SDS011;65428;53.194;6.132;2023-08-30T01:06:06;29.95;;;27.15;;
76566;SDS011;65428;53.194;6.132;2023-08-30T01:08:33;27.55;;;25.15;;
76566;SDS011;65428;53.194;6.132;2023-08-30T01:13:33;27.17;;;24.67;;
76566;SDS011;65428;53.194;6.132;2023-08-30T01:16:07;25.27;;;22.92;;
76566;SDS011;65428;53.194;6.132;2023-08-30T01:18:34;25.75;;;23.40;;
76566;SDS011;65428;53.194;6.132;2023-08-30T01:21:02;26.35;;;23.95;;
76566;SDS011;65428;53.194;6.132;2023-08-30T01:23:42;27.43;;;24.87;;
76566;SDS011;65428;53.194;6.132;2023-08-30T01:26:34;26.60;;;24.13;;
76566;SDS011;65428;53.194;6.132;2023-08-30T01:29:13;26.63;;;23.97;;
76566;SDS011;65428;53.194;6.132;2023-08-30T01:31:41;26.17;;;23.73;;
76566;SDS011;65428;53.194;6.132;2023-08-30T01:34:08;25.07;;;22.83;;
76566;SDS011;65428;53.194;6.132;2023-08-30T01:36:34;25.80;;;23.40;;
76566;SDS011;65428;53.194;6.132;2023-08-30T01:39:01;25.85;;;23.40;;
76566;SDS011;65428;53.194;6.132;2023-08-30T01:41:27;25.02;;;22.63;;
76566;SDS011;65428;53.194;6.132;2023-08-30T01:43:54;23.38;;;21.17;;
76566;SDS011;65428;53.194;6.132;2023-08-30T01:46:21;24.07;;;21.77;;
76566;SDS011;65428;53.194;6.132;2023-08-30T01:48:48;26.30;;;23.77;;
76566;SDS011;65428;53.194;6.132;2023-08-30T01:51:15;22.80;;;20.80;;
76566;SDS011;65428;53.194;6.132;2023-08-30T01:53:42;23.88;;;21.50;;
76566;SDS011;65428;53.194;6.132;2023-08-30T01:56:11;22.88;;;20.77;;
76566;SDS011;65428;53.194;6.132;2023-08-30T01:58:36;23.87;;;21.50;;
76566;SDS011;65428;53.194;6.132;2023-08-30T02:01:02;24.30;;;22.10;;
76566;SDS011;65428;53.194;6.132;2023-08-30T02:03:28;22.47;;;20.27;;
76566;SDS011;65428;53.194;6.132;2023-08-30T02:08:55;22.90;;;20.75;;
76566;SDS011;65428;53.194;6.132;2023-08-30T02:11:26;22.98;;;20.80;;
76566;SDS011;65428;53.194;6.132;2023-08-30T02:13:57;23.15;;;21.10;;
76566;SDS011;65428;53.194;6.132;2023-08-30T02:16:25;25.15;;;22.70;;
76566;SDS011;65428;53.194;6.132;2023-08-30T02:18:51;22.77;;;20.57;;
76566;SDS011;65428;53.194;6.132;2023-08-30T02:21:17;23.53;;;21.23;;
76566;SDS011;65428;53.194;6.132;2023-08-30T02:23:43;22.98;;;20.77;;
76566;SDS011;65428;53.194;6.132;2023-08-30T02:26:09;21.87;;;19.87;;
76566;SDS011;65428;53.194;6.132;2023-08-30T02:28:35;24.40;;;22.10;;
76566;SDS011;65428;53.194;6.132;2023-08-30T02:31:02;21.65;;;19.55;;
76566;SDS011;65428;53.194;6.132;2023-08-30T02:33:28;26.33;;;23.53;;
76566;SDS011;65428;53.194;6.132;2023-08-30T02:35:54;22.40;;;20.27;;
76566;SDS011;65428;53.194;6.132;2023-08-30T02:38:20;23.77;;;21.33;;
76566;SDS011;65428;53.194;6.132;2023-08-30T02:40:45;21.27;;;19.25;;
76566;SDS011;65428;53.194;6.132;2023-08-30T02:43:11;23.17;;;20.83;;
76566;SDS011;65428;53.194;6.132;2023-08-30T02:45:37;23.90;;;21.55;;
76566;SDS011;65428;53.194;6.132;2023-08-30T02:48:02;24.97;;;22.47;;
76566;SDS011;65428;53.194;6.132;2023-08-30T02:50:28;23.17;;;20.98;;
76566;SDS011;65428;53.194;6.132;2023-08-30T02:52:54;24.50;;;22.13;;
76566;SDS011;65428;53.194;6.132;2023-08-30T02:55:19;25.80;;;23.17;;
76566;SDS011;65428;53.194;6.132;2023-08-30T02:57:45;26.48;;;23.42;;
76566;SDS011;65428;53.194;6.132;2023-08-30T03:00:11;26.65;;;23.90;;
76566;SDS011;65428;53.194;6.132;2023-08-30T03:02:37;24.17;;;21.88;;
76566;SDS011;65428;53.194;6.132;2023-08-30T03:05:03;23.10;;;20.90;;
76566;SDS011;65428;53.194;6.132;2023-08-30T03:07:29;27.17;;;24.38;;
76566;SDS011;65428;53.194;6.132;2023-08-30T03:09:55;26.65;;;23.95;;
76566;SDS011;65428;53.194;6.132;2023-08-30T03:12:20;26.70;;;24.00;;
76566;SDS011;65428;53.194;6.132;2023-08-30T03:14:46;23.67;;;21.38;;
76566;SDS011;65428;53.194;6.132;2023-08-30T03:17:12;26.05;;;23.35;;
76566;SDS011;65428;53.194;6.132;2023-08-30T03:19:37;26.33;;;23.60;;
76566;SDS011;65428;53.194;6.132;2023-08-30T03:22:03;26.53;;;23.80;;
76566;SDS011;65428;53.194;6.132;2023-08-30T03:24:29;26.15;;;23.65;;
76566;SDS011;65428;53.194;6.132;2023-08-30T03:26:54;27.37;;;24.57;;
76566;SDS011;65428;53.194;6.132;2023-08-30T03:29:20;24.95;;;22.42;;
76566;SDS011;65428;53.194;6.132;2023-08-30T03:31:45;25.83;;;23.10;;
76566;SDS011;65428;53.194;6.132;2023-08-30T03:34:11;24.63;;;22.23;;
76566;SDS011;65428;53.194;6.132;2023-08-30T03:36:37;28.23;;;25.42;;
76566;SDS011;65428;53.194;6.132;2023-08-30T03:39:03;26.15;;;23.52;;
76566;SDS011;65428;53.194;6.132;2023-08-30T03:41:29;25.47;;;22.90;;
76566;SDS011;65428;53.194;6.132;2023-08-30T03:43:54;25.85;;;23.25;;
76566;SDS011;65428;53.194;6.132;2023-08-30T03:46:20;25.35;;;22.75;;
76566;SDS011;65428;53.194;6.132;2023-08-30T03:48:45;24.80;;;22.30;;
76566;SDS011;65428;53.194;6.132;2023-08-30T03:51:11;24.50;;;22.02;;
76566;SDS011;65428;53.194;6.132;2023-08-30T03:53:37;24.63;;;22.23;;
76566;SDS011;65428;53.194;6.132;2023-08-30T03:56:03;25.20;;;22.58;;
76566;SDS011;65428;53.194;6.132;2023-08-30T03:58:29;22.27;;;20.07;;
76566;SDS011;65428;53.194;6.132;2023-08-30T04:00:55;24.65;;;22.25;;
76566;SDS011;65428;53.194;6.132;2023-08-30T04:03:21;21.88;;;19.77;;
76566;SDS011;65428;53.194;6.132;2023-08-30T04:05:47;22.67;;;20.57;;
76566;SDS011;65428;53.194;6.132;2023-08-30T04:08:13;21.93;;;19.83;;
76566;SDS011;65428;53.194;6.132;2023-08-30T04:10:39;23.30;;;21.02;;
76566;SDS011;65428;53.194;6.132;2023-08-30T04:13:06;23.38;;;20.95;;
76566;SDS011;65428;53.194;6.132;2023-08-30T04:15:36;25.50;;;23.00;;
76566;SDS011;65428;53.194;6.132;2023-08-30T04:18:04;25.90;;;23.05;;
76566;SDS011;65428;53.194;6.132;2023-08-30T04:20:30;25.90;;;23.20;;
76566;SDS011;65428;53.194;6.132;2023-08-30T04:22:57;26.60;;;23.80;;
76566;SDS011;65428;53.194;6.132;2023-08-30T04:25:24;27.15;;;24.30;;
76566;SDS011;65428;53.194;6.132;2023-08-30T04:27:50;28.83;;;25.43;;
76566;SDS011;65428;53.194;6.132;2023-08-30T04:30:16;28.38;;;25.45;;
76566;SDS011;65428;53.194;6.132;2023-08-30T04:32:42;29.08;;;25.98;;
76566;SDS011;65428;53.194;6.132;2023-08-30T04:35:08;29.40;;;26.23;;
76566;SDS011;65428;53.194;6.132;2023-08-30T04:37:33;26.08;;;23.45;;
76566;SDS011;65428;53.194;6.132;2023-08-30T04:39:59;25.27;;;22.57;;
76566;SDS011;65428;53.194;6.132;2023-08-30T04:42:25;24.60;;;22.10;;
76566;SDS011;65428;53.194;6.132;2023-08-30T04:44:51;27.48;;;24.65;;
76566;SDS011;65428;53.194;6.132;2023-08-30T04:47:19;23.52;;;20.98;;
76566;SDS011;65428;53.194;6.132;2023-08-30T04:49:49;23.73;;;21.42;;
76566;SDS011;65428;53.194;6.132;2023-08-30T04:52:18;22.65;;;20.42;;
76566;SDS011;65428;53.194;6.132;2023-08-30T04:54:46;22.25;;;20.05;;
76566;SDS011;65428;53.194;6.132;2023-08-30T04:57:13;23.25;;;20.85;;
76566;SDS011;65428;53.194;6.132;2023-08-30T04:59:41;23.48;;;21.17;;
76566;SDS011;65428;53.194;6.132;2023-08-30T05:02:07;22.10;;;19.92;;
76566;SDS011;65428;53.194;6.132;2023-08-30T05:04:33;22.55;;;20.25;;
76566;SDS011;65428;53.194;6.132;2023-08-30T05:06:58;22.97;;;20.67;;
76566;SDS011;65428;53.194;6.132;2023-08-30T05:09:24;22.38;;;20.02;;
76566;SDS011;65428;53.194;6.132;2023-08-30T05:11:53;20.83;;;18.93;;
76566;SDS011;65428;53.194;6.132;2023-08-30T05:14:19;21.40;;;19.23;;
76566;SDS011;65428;53.194;6.132;2023-08-30T05:16:45;22.67;;;20.40;;
76566;SDS011;65428;53.194;6.132;2023-08-30T05:19:11;20.00;;;18.10;;
76566;SDS011;65428;53.194;6.132;2023-08-30T05:21:36;21.57;;;19.37;;
76566;SDS011;65428;53.194;6.132;2023-08-30T05:24:02;20.65;;;18.55;;
76566;SDS011;65428;53.194;6.132;2023-08-30T05:26:30;21.00;;;18.98;;
76566;SDS011;65428;53.194;6.132;2023-08-30T05:28:56;20.63;;;18.43;;
76566;SDS011;65428;53.194;6.132;2023-08-30T05:31:22;20.50;;;18.43;;
76566;SDS011;65428;53.194;6.132;2023-08-30T05:33:47;20.02;;;18.02;;
76566;SDS011;65428;53.194;6.132;2023-08-30T05:36:13;20.17;;;18.23;;
76566;SDS011;65428;53.194;6.132;2023-08-30T05:38:39;19.92;;;17.92;;
76566;SDS011;65428;53.194;6.132;2023-08-30T05:41:04;18.87;;;16.87;;
76566;SDS011;65428;53.194;6.132;2023-08-30T05:43:30;19.43;;;17.50;;
76566;SDS011;65428;53.194;6.132;2023-08-30T05:45:56;19.83;;;17.95;;
76566;SDS011;65428;53.194;6.132;2023-08-30T05:48:26;19.40;;;17.50;;
76566;SDS011;65428;53.194;6.132;2023-08-30T05:50:52;17.47;;;15.53;;
76566;SDS011;65428;53.194;6.132;2023-08-30T05:53:18;18.98;;;17.05;;
76566;SDS011;65428;53.194;6.132;2023-08-30T05:55:43;18.00;;;16.20;;
76566;SDS011;65428;53.194;6.132;2023-08-30T05:58:09;17.43;;;15.63;;
76566;SDS011;65428;53.194;6.132;2023-08-30T06:00:35;17.85;;;16.13;;
76566;SDS011;65428;53.194;6.132;2023-08-30T06:03:00;17.23;;;15.63;;
76566;SDS011;65428;53.194;6.132;2023-08-30T06:05:27;17.40;;;15.70;;
76566;SDS011;65428;53.194;6.132;2023-08-30T06:07:53;16.38;;;14.68;;
76566;SDS011;65428;53.194;6.132;2023-08-30T06:10:19;17.67;;;15.98;;
76566;SDS011;65428;53.194;6.132;2023-08-30T06:12:45;16.87;;;15.17;;
76566;SDS011;65428;53.194;6.132;2023-08-30T06:15:10;16.80;;;15.10;;
76566;SDS011;65428;53.194;6.132;2023-08-30T06:17:36;16.88;;;15.18;;
76566;SDS011;65428;53.194;6.132;2023-08-30T06:20:02;17.73;;;16.00;;
76566;SDS011;65428;53.194;6.132;2023-08-30T06:22:28;17.35;;;15.55;;
76566;SDS011;65428;53.194;6.132;2023-08-30T06:24:53;16.20;;;14.50;;
76566;SDS011;65428;53.194;6.132;2023-08-30T06:27:19;15.88;;;14.27;;
76566;SDS011;65428;53.194;6.132;2023-08-30T06:29:45;15.17;;;13.67;;
76566;SDS011;65428;53.194;6.132;2023-08-30T06:32:11;15.83;;;14.10;;
76566;SDS011;65428;53.194;6.132;2023-08-30T06:34:36;15.60;;;13.93;;
76566;SDS011;65428;53.194;6.132;2023-08-30T06:37:02;14.97;;;13.47;;
76566;SDS011;65428;53.194;6.132;2023-08-30T06:39:34;15.20;;;13.23;;
76566;SDS011;65428;53.194;6.132;2023-08-30T06:42:01;14.82;;;13.23;;
76566;SDS011;65428;53.194;6.132;2023-08-30T06:44:28;12.73;;;11.43;;
76566;SDS011;65428;53.194;6.132;2023-08-30T06:46:55;14.33;;;12.93;;
76566;SDS011;65428;53.194;6.132;2023-08-30T06:49:21;13.30;;;11.80;;
76566;SDS011;65428;53.194;6.132;2023-08-30T06:51:47;12.75;;;11.50;;
76566;SDS011;65428;53.194;6.132;2023-08-30T06:54:12;11.47;;;10.37;;
76566;SDS011;65428;53.194;6.132;2023-08-30T06:56:38;11.30;;;10.20;;
76566;SDS011;65428;53.194;6.132;2023-08-30T06:59:03;11.67;;;10.47;;
76566;SDS011;65428;53.194;6.132;2023-08-30T07:01:29;11.60;;;10.50;;
76566;SDS011;65428;53.194;6.132;2023-08-30T07:03:55;11.53;;;10.33;;
76566;SDS011;65428;53.194;6.132;2023-08-30T07:06:20;11.73;;;10.10;;
76566;SDS011;65428;53.194;6.132;2023-08-30T07:08:46;10.80;;;9.67;;
76566;SDS011;65428;53.194;6.132;2023-08-30T07:11:12;10.80;;;9.70;;
76566;SDS011;65428;53.194;6.132;2023-08-30T07:13:37;11.40;;;10.02;;
76566;SDS011;65428;53.194;6.132;2023-08-30T07:16:03;11.33;;;10.23;;
76566;SDS011;65428;53.194;6.132;2023-08-30T07:18:29;12.65;;;11.00;;
76566;SDS011;65428;53.194;6.132;2023-08-30T07:20:54;11.43;;;10.23;;
76566;SDS011;65428;53.194;6.132;2023-08-30T07:23:20;11.55;;;10.35;;
76566;SDS011;65428;53.194;6.132;2023-08-30T07:25:45;11.77;;;9.63;;
76566;SDS011;65428;53.194;6.132;2023-08-30T07:28:11;12.32;;;9.45;;
76566;SDS011;65428;53.194;6.132;2023-08-30T07:30:37;10.23;;;9.10;;
76566;SDS011;65428;53.194;6.132;2023-08-30T07:33:03;9.55;;;8.45;;
76566;SDS011;65428;53.194;6.132;2023-08-30T07:35:29;10.00;;;8.35;;
76566;SDS011;65428;53.194;6.132;2023-08-30T07:37:55;10.13;;;7.80;;
76566;SDS011;65428;53.194;6.132;2023-08-30T07:40:21;8.87;;;7.57;;
76566;SDS011;65428;53.194;6.132;2023-08-30T07:42:51;7.95;;;7.15;;
76566;SDS011;65428;53.194;6.132;2023-08-30T07:45:17;8.57;;;7.28;;
76566;SDS011;65428;53.194;6.132;2023-08-30T07:47:43;9.55;;;7.93;;
76566;SDS011;65428;53.194;6.132;2023-08-30T07:50:08;9.30;;;8.40;;
76566;SDS011;65428;53.194;6.132;2023-08-30T07:52:34;8.82;;;7.88;;
76566;SDS011;65428;53.194;6.132;2023-08-30T07:55:00;9.07;;;7.80;;
76566;SDS011;65428;53.194;6.132;2023-08-30T07:57:26;9.10;;;7.43;;
76566;SDS011;65428;53.194;6.132;2023-08-30T07:59:52;10.18;;;8.00;;
76566;SDS011;65428;53.194;6.132;2023-08-30T08:02:18;8.52;;;7.40;;
76566;SDS011;65428;53.194;6.132;2023-08-30T08:04:43;8.30;;;7.23;;
76566;SDS011;65428;53.194;6.132;2023-08-30T08:07:09;8.80;;;7.33;;
76566;SDS011;65428;53.194;6.132;2023-08-30T08:09:35;9.52;;;7.43;;
76566;SDS011;65428;53.194;6.132;2023-08-30T08:12:00;7.73;;;6.97;;
76566;SDS011;65428;53.194;6.132;2023-08-30T08:14:26;8.30;;;6.53;;
76566;SDS011;65428;53.194;6.132;2023-08-30T08:16:52;8.00;;;6.60;;
76566;SDS011;65428;53.194;6.132;2023-08-30T08:19:17;9.32;;;7.15;;
76566;SDS011;65428;53.194;6.132;2023-08-30T08:21:45;7.68;;;6.88;;
76566;SDS011;65428;53.194;6.132;2023-08-30T08:24:10;10.05;;;7.22;;
76566;SDS011;65428;53.194;6.132;2023-08-30T08:26:36;7.93;;;7.10;;
76566;SDS011;65428;53.194;6.132;2023-08-30T08:29:01;8.45;;;7.55;;
76566;SDS011;65428;53.194;6.132;2023-08-30T08:31:28;9.55;;;8.18;;
76566;SDS011;65428;53.194;6.132;2023-08-30T08:34:07;9.27;;;8.10;;
76566;SDS011;65428;53.194;6.132;2023-08-30T08:36:37;9.32;;;8.20;;
76566;SDS011;65428;53.194;6.132;2023-08-30T08:39:04;10.18;;;8.50;;
76566;SDS011;65428;53.194;6.132;2023-08-30T08:41:40;10.10;;;8.63;;
76566;SDS011;65428;53.194;6.132;2023-08-30T08:44:07;12.50;;;9.43;;
76566;SDS011;65428;53.194;6.132;2023-08-30T08:46:37;9.82;;;8.68;;
76566;SDS011;65428;53.194;6.132;2023-08-30T08:49:14;9.95;;;8.65;;
76566;SDS011;65428;53.194;6.132;2023-08-30T08:51:41;11.10;;;9.18;;
76566;SDS011;65428;53.194;6.132;2023-08-30T08:54:08;10.52;;;9.30;;
76566;SDS011;65428;53.194;6.132;2023-08-30T08:56:35;10.63;;;9.37;;
76566;SDS011;65428;53.194;6.132;2023-08-30T08:59:02;10.25;;;8.90;;
76566;SDS011;65428;53.194;6.132;2023-08-30T09:01:28;9.50;;;8.57;;
76566;SDS011;65428;53.194;6.132;2023-08-30T09:03:54;11.70;;;9.43;;
76566;SDS011;65428;53.194;6.132;2023-08-30T09:06:21;10.55;;;9.45;;
76566;SDS011;65428;53.194;6.132;2023-08-30T09:08:48;10.98;;;9.15;;
76566;SDS011;65428;53.194;6.132;2023-08-30T09:11:14;10.60;;;9.55;;
76566;SDS011;65428;53.194;6.132;2023-08-30T09:13:39;10.97;;;9.63;;
76566;SDS011;65428;53.194;6.132;2023-08-30T09:16:12;10.77;;;9.27;;
76566;SDS011;65428;53.194;6.132;2023-08-30T09:18:39;10.98;;;9.88;;
76566;SDS011;65428;53.194;6.132;2023-08-30T09:21:09;10.32;;;9.23;;
76566;SDS011;65428;53.194;6.132;2023-08-30T09:23:36;10.55;;;9.50;;
76566;SDS011;65428;53.194;6.132;2023-08-30T09:26:02;10.20;;;9.20;;
76566;SDS011;65428;53.194;6.132;2023-08-30T09:28:29;11.07;;;9.63;;
76566;SDS011;65428;53.194;6.132;2023-08-30T09:30:57;10.43;;;9.33;;
76566;SDS011;65428;53.194;6.132;2023-08-30T09:33:29;10.07;;;9.07;;
76566;SDS011;65428;53.194;6.132;2023-08-30T09:35:59;9.70;;;8.70;;
76566;SDS011;65428;53.194;6.132;2023-08-30T09:38:25;8.82;;;7.85;;
76566;SDS011;65428;53.194;6.132;2023-08-30T09:41:04;8.18;;;7.10;;
76566;SDS011;65428;53.194;6.132;2023-08-30T09:43:32;8.25;;;7.18;;
76566;SDS011;65428;53.194;6.132;2023-08-30T09:46:02;8.23;;;7.43;;
76566;SDS011;65428;53.194;6.132;2023-08-30T09:48:31;7.80;;;7.00;;
76566;SDS011;65428;53.194;6.132;2023-08-30T09:50:58;7.60;;;6.88;;
76566;SDS011;65428;53.194;6.132;2023-08-30T09:53:27;8.15;;;7.32;;
76566;SDS011;65428;53.194;6.132;2023-08-30T09:55:55;8.15;;;7.35;;
76566;SDS011;65428;53.194;6.132;2023-08-30T09:58:21;8.20;;;6.78;;
76566;SDS011;65428;53.194;6.132;2023-08-30T10:00:48;6.20;;;5.60;;
76566;SDS011;65428;53.194;6.132;2023-08-30T10:03:14;5.82;;;5.22;;
76566;SDS011;65428;53.194;6.132;2023-08-30T10:05:44;6.32;;;5.28;;
76566;SDS011;65428;53.194;6.132;2023-08-30T10:08:10;6.72;;;5.90;;
76566;SDS011;65428;53.194;6.132;2023-08-30T10:10:38;6.33;;;5.67;;
76566;SDS011;65428;53.194;6.132;2023-08-30T10:13:05;7.43;;;6.65;;
76566;SDS011;65428;53.194;6.132;2023-08-30T10:15:31;6.95;;;6.10;;
76566;SDS011;65428;53.194;6.132;2023-08-30T10:18:01;8.20;;;6.57;;
76566;SDS011;65428;53.194;6.132;2023-08-30T10:20:28;7.68;;;6.85;;
76566;SDS011;65428;53.194;6.132;2023-08-30T10:22:54;8.52;;;6.88;;
76566;SDS011;65428;53.194;6.132;2023-08-30T10:25:24;8.40;;;7.60;;
76566;SDS011;65428;53.194;6.132;2023-08-30T10:27:52;7.82;;;7.00;;
76566;SDS011;65428;53.194;6.132;2023-08-30T10:30:19;9.00;;;7.72;;
76566;SDS011;65428;53.194;6.132;2023-08-30T10:32:46;9.88;;;8.88;;
76566;SDS011;65428;53.194;6.132;2023-08-30T10:35:13;10.43;;;9.20;;
76566;SDS011;65428;53.194;6.132;2023-08-30T10:37:40;12.65;;;10.98;;
76566;SDS011;65428;53.194;6.132;2023-08-30T10:40:06;13.60;;;12.20;;
76566;SDS011;65428;53.194;6.132;2023-08-30T10:42:32;13.85;;;12.45;;
76566;SDS011;65428;53.194;6.132;2023-08-30T10:44:59;14.63;;;13.13;;
76566;SDS011;65428;53.194;6.132;2023-08-30T10:47:28;13.80;;;12.23;;
76566;SDS011;65428;53.194;6.132;2023-08-30T10:49:54;15.00;;;13.32;;
76566;SDS011;65428;53.194;6.132;2023-08-30T10:52:21;15.23;;;13.63;;
76566;SDS011;65428;53.194;6.132;2023-08-30T10:54:48;15.38;;;13.68;;
76566;SDS011;65428;53.194;6.132;2023-08-30T10:57:15;13.35;;;12.05;;
76566;SDS011;65428;53.194;6.132;2023-08-30T10:59:55;13.75;;;12.45;;
76566;SDS011;65428;53.194;6.132;2023-08-30T11:02:29;12.68;;;11.38;;
76566;SDS011;65428;53.194;6.132;2023-08-30T11:04:57;11.30;;;10.10;;
76566;SDS011;65428;53.194;6.132;2023-08-30T11:07:27;13.07;;;11.70;;
76566;SDS011;65428;53.194;6.132;2023-08-30T11:09:53;11.40;;;10.23;;
76566;SDS011;65428;53.194;6.132;2023-08-30T11:12:19;13.85;;;12.55;;
76566;SDS011;65428;53.194;6.132;2023-08-30T11:14:47;13.85;;;12.40;;
76566;SDS011;65428;53.194;6.132;2023-08-30T11:17:16;14.65;;;13.30;;
76566;SDS011;65428;53.194;6.132;2023-08-30T11:19:45;12.67;;;11.30;;
76566;SDS011;65428;53.194;6.132;2023-08-30T11:22:14;14.80;;;13.40;;
76566;SDS011;65428;53.194;6.132;2023-08-30T11:24:41;16.33;;;14.67;;
76566;SDS011;65428;53.194;6.132;2023-08-30T11:27:08;15.25;;;13.65;;
76566;SDS011;65428;53.194;6.132;2023-08-30T11:29:34;15.30;;;13.70;;
76566;SDS011;65428;53.194;6.132;2023-08-30T11:32:00;17.98;;;15.70;;
76566;SDS011;65428;53.194;6.132;2023-08-30T11:34:26;17.27;;;15.55;;
76566;SDS011;65428;53.194;6.132;2023-08-30T11:36:52;17.03;;;15.43;;
76566;SDS011;65428;53.194;6.132;2023-08-30T11:39:18;17.38;;;15.65;;
76566;SDS011;65428;53.194;6.132;2023-08-30T11:41:45;18.35;;;16.65;;
76566;SDS011;65428;53.194;6.132;2023-08-30T11:44:11;16.98;;;15.38;;
76566;SDS011;65428;53.194;6.132;2023-08-30T11:46:37;15.90;;;14.30;;
76566;SDS011;65428;53.194;6.132;2023-08-30T11:49:03;15.93;;;14.43;;
76566;SDS011;65428;53.194;6.132;2023-08-30T11:51:29;14.75;;;13.20;;
76566;SDS011;65428;53.194;6.132;2023-08-30T11:53:55;16.17;;;14.48;;
76566;SDS011;65428;53.194;6.132;2023-08-30T11:56:22;20.10;;;16.88;;
76566;SDS011;65428;53.194;6.132;2023-08-30T11:58:48;17.85;;;15.95;;
76566;SDS011;65428;53.194;6.132;2023-08-30T12:01:14;17.48;;;15.65;;
76566;SDS011;65428;53.194;6.132;2023-08-30T12:03:40;18.50;;;16.70;;
76566;SDS011;65428;53.194;6.132;2023-08-30T12:06:12;19.85;;;17.85;;
76566;SDS011;65428;53.194;6.132;2023-08-30T12:08:38;23.95;;;19.00;;
76566;SDS011;65428;53.194;6.132;2023-08-30T12:11:03;30.42;;;21.38;;
76566;SDS011;65428;53.194;6.132;2023-08-30T12:13:50;30.30;;;24.73;;
76566;SDS011;65428;53.194;6.132;2023-08-30T12:16:16;25.50;;;22.50;;
76566;SDS011;65428;53.194;6.132;2023-08-30T12:18:43;29.97;;;24.47;;
76566;SDS011;65428;53.194;6.132;2023-08-30T12:21:08;40.43;;;30.23;;
76566;SDS011;65428;53.194;6.132;2023-08-30T12:23:34;38.30;;;28.92;;
76566;SDS011;65428;53.194;6.132;2023-08-30T12:28:30;50.08;;;35.72;;
76566;SDS011;65428;53.194;6.132;2023-08-30T12:30:57;65.97;;;41.25;;
76566;SDS011;65428;53.194;6.132;2023-08-30T12:33:23;48.45;;;35.15;;
76566;SDS011;65428;53.194;6.132;2023-08-30T12:35:56;55.53;;;37.00;;
76566;SDS011;65428;53.194;6.132;2023-08-30T12:38:23;43.50;;;31.73;;
76566;SDS011;65428;53.194;6.132;2023-08-30T12:40:50;44.38;;;30.05;;
76566;SDS011;65428;53.194;6.132;2023-08-30T12:43:19;61.03;;;37.35;;
76566;SDS011;65428;53.194;6.132;2023-08-30T12:45:45;60.57;;;36.63;;
76566;SDS011;65428;53.194;6.132;2023-08-30T12:48:12;78.45;;;40.28;;
76566;SDS011;65428;53.194;6.132;2023-08-30T12:50:40;49.83;;;33.47;;
76566;SDS011;65428;53.194;6.132;2023-08-30T12:53:08;58.25;;;36.65;;
76566;SDS011;65428;53.194;6.132;2023-08-30T12:55:34;47.80;;;31.87;;
76566;SDS011;65428;53.194;6.132;2023-08-30T12:58:00;53.75;;;34.70;;
76566;SDS011;65428;53.194;6.132;2023-08-30T13:00:26;43.22;;;29.98;;
76566;SDS011;65428;53.194;6.132;2023-08-30T13:02:52;44.27;;;31.53;;
76566;SDS011;65428;53.194;6.132;2023-08-30T13:05:18;51.88;;;34.83;;
76566;SDS011;65428;53.194;6.132;2023-08-30T13:07:44;49.47;;;34.47;;
76566;SDS011;65428;53.194;6.132;2023-08-30T13:10:09;53.30;;;34.35;;
76566;SDS011;65428;53.194;6.132;2023-08-30T13:12:36;34.13;;;27.20;;
76566;SDS011;65428;53.194;6.132;2023-08-30T13:15:02;52.40;;;34.28;;
76566;SDS011;65428;53.194;6.132;2023-08-30T13:17:29;62.05;;;37.03;;
76566;SDS011;65428;53.194;6.132;2023-08-30T13:19:54;47.73;;;33.53;;
76566;SDS011;65428;53.194;6.132;2023-08-30T13:22:22;54.67;;;35.88;;
76566;SDS011;65428;53.194;6.132;2023-08-30T13:24:47;43.65;;;31.98;;
76566;SDS011;65428;53.194;6.132;2023-08-30T13:27:13;60.97;;;38.22;;
76566;SDS011;65428;53.194;6.132;2023-08-30T13:29:39;46.57;;;34.57;;
76566;SDS011;65428;53.194;6.132;2023-08-30T13:32:05;26.52;;;23.80;;
76566;SDS011;65428;53.194;6.132;2023-08-30T13:34:31;27.60;;;24.80;;
76566;SDS011;65428;53.194;6.132;2023-08-30T13:36:56;31.87;;;27.73;;
76566;SDS011;65428;53.194;6.132;2023-08-30T13:39:22;46.30;;;32.50;;
76566;SDS011;65428;53.194;6.132;2023-08-30T13:41:48;34.50;;;28.23;;
76566;SDS011;65428;53.194;6.132;2023-08-30T13:44:13;29.45;;;26.30;;
76566;SDS011;65428;53.194;6.132;2023-08-30T13:46:40;21.67;;;19.67;;
76566;SDS011;65428;53.194;6.132;2023-08-30T13:49:08;25.33;;;22.65;;
76566;SDS011;65428;53.194;6.132;2023-08-30T13:51:42;24.00;;;21.48;;
76566;SDS011;65428;53.194;6.132;2023-08-30T13:54:10;22.30;;;20.05;;
76566;SDS011;65428;53.194;6.132;2023-08-30T13:56:36;34.45;;;28.13;;
76566;SDS011;65428;53.194;6.132;2023-08-30T13:59:03;24.30;;;21.70;;
76566;SDS011;65428;53.194;6.132;2023-08-30T14:01:31;25.02;;;22.40;;
76566;SDS011;65428;53.194;6.132;2023-08-30T14:03:57;20.63;;;18.63;;
76566;SDS011;65428;53.194;6.132;2023-08-30T14:06:23;21.15;;;19.23;;
76566;SDS011;65428;53.194;6.132;2023-08-30T14:08:48;20.93;;;18.93;;
76566;SDS011;65428;53.194;6.132;2023-08-30T14:11:14;17.38;;;15.88;;
76566;SDS011;65428;53.194;6.132;2023-08-30T14:13:40;18.63;;;16.93;;
76566;SDS011;65428;53.194;6.132;2023-08-30T14:16:05;18.20;;;16.55;;
76566;SDS011;65428;53.194;6.132;2023-08-30T14:18:32;18.63;;;17.02;;
76566;SDS011;65428;53.194;6.132;2023-08-30T14:20:58;18.13;;;16.63;;
76566;SDS011;65428;53.194;6.132;2023-08-30T14:23:24;14.43;;;13.23;;
76566;SDS011;65428;53.194;6.132;2023-08-30T14:25:57;13.85;;;12.75;;
76566;SDS011;65428;53.194;6.132;2023-08-30T14:28:24;11.98;;;11.05;;
76566;SDS011;65428;53.194;6.132;2023-08-30T14:30:51;10.80;;;9.97;;